Kewanee, Missouri
Current Conditions -  °F | °C
As of 4:55 AM on Friday 31 Oct 2014 (Local Time) from KCIR Reporting Station
Haze Haze  
Wind Chill: 51°   Ceiling: 5000
Heat Index: 51°   Visibility: 1.5mi
Dew Point: 47°   Wind: 3mph
Humidity: 89%   Direction: 310°NW
Pressure: 30.02"   Gusts: NA
Location:  36.67°N, 89.57°W
Report Text: KCIR 310955Z AUTO 31003KT 1 1/2SM BR BKN050 OVC075 10/09 A3002 RMK AO2 T01040086
Loading
Personal Weather Stations






























Interactive Weather Map
Tropical Storm Tracking
New forecast layout! Learn more

10-Day Weather Forecast

Advertisements
Track Severe Weather on mobile